Eden Valley, Minnesota
Current Conditions -  °F | °C
As of 8:34 AM on Thursday 23 Oct 2014 (Local Time) from KPEX Reporting Station
Moderate Fog Moderate Fog  
Wind Chill: 46°   Ceiling: 200
Heat Index: 46°   Visibility: 0.25mi
Dew Point: 46°   Wind: 3mph
Humidity: 100%   Direction: 170°S
Pressure: 29.98"   Gusts: NA
Location:  45.33°N, 94.55°W
Report Text: KPEX 231334Z AUTO 17003KT 1/4SM FG OVC002 08/08 A2998 RMK AO2 T00800081
Loading
Personal Weather Stations






























Interactive Weather Map
Tropical Storm Tracking
New forecast layout! Learn more

10-Day Weather Forecast

Advertisements
Track Severe Weather on mobile